Aeroporto :
LOGIN :

Iscrizione | Disclaimer

   EN    FR    IT 

 










Sommario :    VFR   VFR Marginale   IFR   IFR Intensivo   IFR Molto Intensivo
Visibilità : 
Base nubi : 
>= 8 km
>= 3000ft
5 / 8 km
1000 / 3000 ft
1500m / 5 km
500 / 1000 ft
800 / 1500m
200 / 500 ft
< 800m
< 200 ft
Simboli :   Temporali  Nebbia  Neve Forte  Precipitazioni Forti  Vento > 20 kt
SIGMETs :   Varie  Temporali  Ghiacco  Turbolenza  Onda orograficha  Ceneri Vulcaniche







- Altitudine del aeroporto : 65 ft
- Codice IATA : PMO


LICJ - Palermo Punta Raisi

ULTIMO METAR :
  • 152050Z 07014KT 9999 SCT025 11/06 Q1024

METARs OBSOLETI :
  • 152020Z 08017KT 9999 SCT030 11/06 Q1024
  • 151950Z 06026KT 9999 FEW018CB SCT030 10/06 Q1024
  • 151920Z 04016KT 9999 VCTS FEW020CB SCT030 13/08 Q1024
  • 151850Z 05013KT 9999 FEW020 13/07 Q1024
  • 151820Z 05011KT 9999 FEW020 12/06 Q1024

TAF TAF LICJ
Valido dal 15 a 18 ore il 16 a 18 ore UTC


151700Z 1518/1618 04015KT 9999 FEW050
TEMPO 1518/1521 TSRA
BECMG 1520/1522 VRB05KT
BECMG 1608/1610 05010KT
Nessun NOTAM noto per questo aeroporto.



MetMap, La meteo Aeronautica in un colpo d'occhio ! - Copyright ORBIFLY Dicembre 2007 - Disclaimer

ORBIFLY MET'MAP TEAM :

Programmazione e sviluppo : Alexandra Zaïnal
Concezione e sviluppo : Baudouin d'Aumeries
Co-Programmazione e sviluppo : Marc-Olivier Méhu
Supporto tecnico e logistico : Manuel Goepfert
Aiuto per la traduzione : Arnaldo La Scala

Contatto : metmap@orbifly.com




FONTI E CREDITI :

   NOAA